Pemaquid Point Lighthouse, ME

43° 50' 13"N, 69° 30' 22"W, Elevation 40 ft.
Eastern Time

Hourly observations for the last 72 hours

Date Time Temperature (°F) Humi-
dity

(%)
Wind
(mph)
Pressure Rain (in) Sun
(W/m2)
UV ET
(in)
Air Dew 6 Hour 1 Hr 3 Hr 6 Hr Day
Alt
(in)
Sea
Level

(mb)
Max Min
23 05:00 38.8 29.5 69 WSW 15 G 27 29.58 1001.7 0.00 0 0.0 0.008
23 04:00 38.7 29.4 69 W 16 G 30 29.58 1001.8 0.00 0 0.0 0.006
23 03:00 38.4 29.8 71 W 14 G 33 29.58 1001.8 0.00 0 0.0 0.004
23 02:00 37.9 29.7 37.9 35.9 72 WSW 14 G 27 29.58 1001.7 0.00 0 0.0 0.002
23 01:00 37.5 29.3 72 WSW 14 G 30 29.59 1002.0 0.00 0 0.0 0.000
23 00:00 37.4 28.2 69 WSW 14 G 27 29.60 1002.3 0.00 0 0.0 0.131
22 23:00 36.0 25.4 65 W 9 G 14 29.61 1002.9 0.00 0 0.0 0.129
22 22:00 36.1 24.7 63 W 12 G 20 29.62 1003.0 0.00 0 0.0 0.127
22 21:00 36.3 23.7 60 WNW 8 G 12 29.61 1002.7 0.00 0 0.0 0.125
22 20:00 36.6 24.0 38.9 36.3 60 W 14 G 20 29.58 1001.8 0.00 0 0.0 0.122
22 19:00 36.5 21.4 54 W 19 G 27 29.56 1000.9 0.00 11 0.0 0.117
22 18:00 37.1 19.2 48 W 27 G 41 29.53 1000.2 0.00 86 0.0 0.109
22 17:00 37.4 22.3 54 WNW 17 G 32 29.52 999.7 0.00 390 0.0 0.098
22 16:00 38.4 23.2 54 W 18 G 34 29.49 998.5 0.00 622 0.0 0.087
22 15:00 37.3 20.4 50 W 23 G 41 29.47 998.0 0.00 315 0.0 0.075
22 14:00 36.8 19.4 38.5 32.3 49 W 23 G 38 29.46 997.7 0.00 309 0.0 0.064
22 13:00 37.3 22.6 55 W 19 G 29 29.45 997.2 0.00 318 0.0 0.051
22 12:00 37.1 21.5 53 W 18 G 34 29.45 997.2 0.00 487 0.0 0.037
22 11:00 35.9 22.1 57 W 29 G 39 29.44 996.9 0.00 1007 1.1 0.024
22 10:00 34.5 23.6 64 WNW 18 G 37 29.44 997.0 0.00 162 0.0 0.017
22 09:00 32.6 22.5 66 W 22 G 36 29.44 996.9 0.00 237 0.0 0.012
22 08:00 32.4 24.4 35.3 31.8 72 W 18 G 28 29.42 996.5 0.00 123 0.0 0.009
22 07:00 32.0 26.2 79 W 11 G 20 29.41 995.9 0.00 46 0.0 0.007
22 06:00 32.7 25.7 75 W 17 G 29 29.39 995.4 0.00 0 0.0 0.005
22 05:00 32.7 26.9 79 WNW 17 G 24 29.37 994.7 0.00 0 0.0 0.004
22 04:00 32.2 27.9 84 WNW 15 G 29 29.36 994.3 0.00 0 0.0 0.003
22 03:00 33.3 29.3 85 NW 18 G 36 29.36 994.1 0.00 0 0.0 0.002
22 02:00 35.3 31.8 48.0 35.3 87 WNW 17 G 28 29.37 994.5 0.06 0.00 0 0.0 0.001
22 01:00 38.7 35.7 89 NNW 16 G 38 29.36 994.2 0.00 0 0.0 0.000
22 00:00 40.0 37.3 90 NNW 13 G 26 29.36 994.2 0.16 0 0.0 0.104
21 23:00 46.4 43.9 91 W 7 G 10 29.36 994.4 0.01 0.06 0.16 0 0.0 0.104
21 22:00 46.9 44.4 91 SW 10 G 16 29.40 995.6 0.15 0 0.0 0.103
21 21:00 47.6 44.8 90 S 16 G 21 29.42 996.3 0.05 0.15 0 0.0 0.102
21 20:00 47.7 44.9 54.5 47.7 90 S 14 G 18 29.44 997.0 0.06 0.08 0.08 0.10 0 0.0 0.101
21 19:00 48.1 45.0 89 S 7 G 12 29.46 997.5 0.01 0.04 0 0.0 0.100
21 18:00 49.0 45.6 88 S 14 G 19 29.49 998.5 0.01 0.03 47 0.0 0.098
21 17:00 49.5 45.8 87 SSW 12 G 20 29.52 999.6 0.02 67 0.0 0.095
21 16:00 50.2 45.9 85 SSE 25 G 32 29.51 999.5 0.02 79 0.0 0.089
21 15:00 51.7 46.4 82 SSE 17 G 22 29.56 1001.1 0.02 292 0.0 0.076
21 14:00 53.9 48.2 55.1 46.8 81 SSE 8 G 13 29.62 1003.0 0.02 976 1.3 0.058
21 13:00 54.2 49.2 83 SW 2 G 6 29.66 1004.3 0.02 798 2.2 0.041
21 12:00 51.2 46.5 84 S 4 G 8 29.70 1005.7 0.02 452 0.0 0.026
21 11:00 50.8 46.1 84 S 6 G 8 29.73 1006.8 0.02 809 0.7 0.015
21 10:00 49.0 44.7 85 ESE 2 G 4 29.75 1007.4 0.02 114 0.0 0.013
21 09:00 47.1 42.5 84 ENE 6 G 8 29.78 1008.5 0.02 114 0.0 0.010
21 08:00 46.9 42.0 48.2 44.8 83 NNE 9 G 13 29.80 1009.0 0.02 70 0.0 0.008
21 07:00 46.5 41.3 82 NE 9 G 11 29.82 1009.9 0.02 53 0.0 0.007
21 06:00 45.5 41.3 85 E 7 G 9 29.83 1010.2 0.02 11 0.0 0.006
21 05:00 47.2 39.7 75 NNE 9 G 13 29.84 1010.7 0.02 0 0.0 0.004
21 04:00 47.5 41.0 78 NNE 8 G 11 29.86 1011.2 0.02 0 0.0 0.003
21 03:00 46.4 41.8 84 N 3 G 4 29.88 1012.0 0.02 0 0.0 0.002
21 02:00 47.5 42.0 58.3 47.5 81 WNW 2 G 4 29.88 1011.8 0.01 0.02 0.02 0.02 0 0.0 0.001
21 01:00 48.9 41.3 75 N 4 G 9 29.87 1011.6 0.01 0.01 0 0.0 0.000
21 00:00 48.9 41.3 75 W 6 G 9 29.87 1011.6 0.00 0 0.0 0.120
20 23:00 53.4 41.5 64 SSW 3 G 4 29.86 1011.3 0.00 0 0.0 0.118
20 22:00 54.1 41.4 62 W 9 G 13 29.85 1010.9 0.00 0 0.0 0.115
20 21:00 56.0 41.9 59 W 9 G 12 29.84 1010.7 0.00 0 0.0 0.111
20 20:00 58.3 43.1 58.4 49.9 57 W 14 G 24 29.82 1009.9 0.00 0 0.0 0.108
20 19:00 52.0 45.0 77 WNW 5 G 8 29.79 1008.8 0.00 47 0.0 0.105
20 18:00 51.0 45.1 80 SW 7 G 12 29.77 1008.2 0.00 265 0.0 0.099
20 17:00 51.9 45.3 78 WSW 7 G 14 29.76 1007.9 0.00 183 0.0 0.093
20 16:00 51.9 44.9 77 SW 12 G 18 29.76 1007.7 0.00 264 0.0 0.081
20 15:00 53.2 45.5 75 SSW 11 G 15 29.76 1007.9 0.00 868 0.0 0.064
20 14:00 53.1 46.1 53.1 44.5 77 SSW 10 G 13 29.77 1008.3 0.00 786 0.5 0.048
20 13:00 52.3 45.7 78 SW 8 G 11 29.80 1009.1 0.00 512 0.0 0.034
20 12:00 50.7 45.1 81 SW 6 G 10 29.81 1009.4 0.00 508 0.0 0.020
20 11:00 50.0 46.0 86 SW 8 G 10 29.82 1009.8 0.00 853 0.7 0.009
20 10:00 48.1 44.7 88 SW 5 G 8 29.83 1010.1 0.00 155 0.0 0.007
20 09:00 46.2 42.8 88 SW 3 G 5 29.82 1009.8 0.00 60 0.0 0.006
20 08:00 44.6 41.0 44.8 39.1 87 WSW 3 G 9 29.81 1009.6 0.00 40 0.0 0.005
20 07:00 43.2 40.2 89 WNW 2 G 3 29.80 1009.2 0.00 33 0.0 0.004
20 06:00 39.2 35.7 87 WNW 2 G 3 29.79 1008.9 0.00 11 0.0 0.004

Data generated by WxSolution Version 1.9.1.8, Build 2020.02.16.